SY4AIL-13 Weather Reports


time (UTC)temp
F
wind
direction
speed
knots
gust
knots
rain 1hr
in
rain 24hr
in
rain mn
in
humidity
%
barometer
mb
20260506152541 80 0.0 0.0 0.00 0.00 0.00 46 1020.5
20260506151521 82 0.0 0.0 0.00 0.00 0.00 42 1018.9
20260506150521 82 0.0 0.0 0.00 0.00 0.00 45 1019.4
20260506145521 82 0.0 0.0 0.00 0.00 0.00 43 1019.0
20260506144551 82 0.0 0.0 0.00 0.00 0.00 44 1018.8
20260506143521 81 0.0 0.0 0.00 0.00 0.00 42 1019.4
20260506142521 81 0.0 0.0 0.00 0.00 0.00 41 1019.6
20260506141521 82 0.0 0.0 0.00 0.00 0.00 43 1018.9
20260506140536 81 0.0 0.0 0.00 0.00 0.00 42 1019.8
20260506135551 82 0.0 0.0 0.00 0.00 0.00 41 1019.8
20260506134522 82 0.0 0.0 0.00 0.00 0.00 42 1019.5
20260506133521 83 0.0 0.0 0.00 0.00 0.00 41 1018.5
20260506132552 82 0.0 0.0 0.00 0.00 0.00 42 1019.2
20260506131521 82 0.0 0.0 0.00 0.00 0.00 42 1020.3
20260506130521 82 0.0 0.0 0.00 0.00 0.00 43 1019.5
20260506125521 82 0.0 0.0 0.00 0.00 0.00 41 1019.8
20260506124536 82 0.0 0.0 0.00 0.00 0.00 43 1019.7
20260506123536 82 0.0 0.0 0.00 0.00 0.00 41 1020.3
20260506122536 82 0.0 0.0 0.00 0.00 0.00 39 1019.6
20260506121521 81 0.0 0.0 0.00 0.00 0.00 39 1021.4
20260506120521 83 0.0 0.0 0.00 0.00 0.00 41 1020.1
20260506115536 83 0.0 0.0 0.00 0.00 0.00 40 1021.6
20260506114521 84 0.0 0.0 0.00 0.00 0.00 40 1018.5
20260506113521 82 0.0 0.0 0.00 0.00 0.00 43 1020.9
20260506112521 82 0.0 0.0 0.00 0.00 0.00 42 1021.7
20260506111521 83 0.0 0.0 0.00 0.00 0.00 44 1019.9
20260506110521 82 0.0 0.0 0.00 0.00 0.00 42 1020.6
20260506105521 82 0.0 0.0 0.00 0.00 0.00 42 1020.0
20260506104520 81 0.0 0.0 0.00 0.00 0.00 39 1021.2
20260506103521 81 0.0 0.0 0.00 0.00 0.00 43 1020.7
20260506102536 81 0.0 0.0 0.00 0.00 0.00 41 1021.5
20260506101521 81 0.0 0.0 0.00 0.00 0.00 44 1020.9
20260506100520 81 0.0 0.0 0.00 0.00 0.00 42 1019.9
20260506095520 80 0.0 0.0 0.00 0.00 0.00 44 1021.8
20260506094536 80 0.0 0.0 0.00 0.00 0.00 45 1021.1
20260506093521 79 0.0 0.0 0.00 0.00 0.00 46 1020.6
20260506092520 78 0.0 0.0 0.00 0.00 0.00 47 1022.1
20260506091520 79 0.0 0.0 0.00 0.00 0.00 45 1021.1
20260506090521 78 0.0 0.0 0.00 0.00 0.00 47 1021.1
20260506085520 77 0.0 0.0 0.00 0.00 0.00 49 1022.0
20260506084522 77 0.0 0.0 0.00 0.00 0.00 47 1020.6
20260506083520 76 0.0 0.0 0.00 0.00 0.00 48 1022.3
20260506082520 76 0.0 0.0 0.00 0.00 0.00 50 1020.9
20260506081521 75 0.0 0.0 0.00 0.00 0.00 53 1020.3
20260506080520 73 0.0 0.0 0.00 0.00 0.00 55 1022.5
20260506073520 72 0.0 0.0 0.00 0.00 0.00 58 1020.6
20260506072521 71 0.0 0.0 0.00 0.00 0.00 59 1022.4
20260506071521 71 0.0 0.0 0.00 0.00 0.00 61 1021.1
20260506070521 69 0.0 0.0 0.00 0.00 0.00 63 1022.7
20260506061521 69 0.0 0.0 0.00 0.00 0.00 63 1021.6
20260506060536 68 0.0 0.0 0.00 0.00 0.00 65 1021.7
20260506050535 63 0.0 0.0 0.00 0.00 0.00 79 1021.0
20260506044521 60 0.0 0.0 0.00 0.00 0.00 84 1022.3
20260506043551 60 0.0 0.0 0.00 0.00 0.00 87 1021.2
20260506042520 59 0.0 0.0 0.00 0.00 0.00 87 1022.4
20260506041521 59 0.0 0.0 0.00 0.00 0.00 80 1022.1
20260506040520 59 0.0 0.0 0.00 0.00 0.00 86 1021.4
20260506035520 59 0.0 0.0 0.00 0.00 0.00 87 1021.6
20260506034521 58 0.0 0.0 0.00 0.00 0.00 87 1022.5
20260506033520 59 0.0 0.0 0.00 0.00 0.00 87 1021.9
20260506032520 59 0.0 0.0 0.00 0.00 0.00 88 1021.6
20260506031520 58 0.0 0.0 0.00 0.00 0.00 88 1022.3
20260506030520 59 0.0 0.0 0.00 0.00 0.00 87 1022.0
20260506025520 59 0.0 0.0 0.00 0.00 0.00 83 1022.2
20260506024520 60 0.0 0.0 0.00 0.00 0.00 82 1022.1
20260506023520 60 0.0 0.0 0.00 0.00 0.00 80 1021.4
20260506022520 60 0.0 0.0 0.00 0.00 0.00 76 1021.9
20260506021520 60 0.0 0.0 0.00 0.00 0.00 79 1021.5
20260506020520 60 0.0 0.0 0.00 0.00 0.00 82 1022.2
20260506015536 60 0.0 0.0 0.00 0.00 0.00 78 1021.8
20260506014520 60 0.0 0.0 0.00 0.00 0.00 77 1021.8
20260506013520 61 0.0 0.0 0.00 0.00 0.00 78 1021.8
20260506012520 61 0.0 0.0 0.00 0.00 0.00 77 1021.7
20260506011520 61 0.0 0.0 0.00 0.00 0.00 77 1021.6
20260506010520 60 0.0 0.0 0.00 0.00 0.00 79 1021.7
20260506005520 61 0.0 0.0 0.00 0.00 0.00 81 1022.1
20260506004520 61 0.0 0.0 0.00 0.00 0.00 76 1021.5
20260506003520 61 0.0 0.0 0.00 0.00 0.00 77 1021.6
20260506002520 61 0.0 0.0 0.00 0.00 0.00 76 1021.4
20260506001520 61 0.0 0.0 0.00 0.00 0.00 79 1021.3
20260506000520 61 0.0 0.0 0.00 0.00 0.00 76 1021.6
20260505235520 61 0.0 0.0 0.00 0.00 0.00 74 1021.6
20260505234520 62 0.0 0.0 0.00 0.00 0.00 83 1021.8
20260505233520 62 0.0 0.0 0.00 0.00 0.00 80 1021.4
20260505232520 62 0.0 0.0 0.00 0.00 0.00 75 1021.3
20260505231520 61 0.0 0.0 0.00 0.00 0.00 81 1021.7
20260505230520 61 0.0 0.0 0.00 0.00 0.00 81 1021.7
20260505225520 62 0.0 0.0 0.00 0.00 0.00 83 1021.7
20260505224520 62 0.0 0.0 0.00 0.00 0.00 78 1021.6
20260505223535 62 0.0 0.0 0.00 0.00 0.00 81 1022.0
20260505222520 62 0.0 0.0 0.00 0.00 0.00 78 1021.9
20260505221520 62 0.0 0.0 0.00 0.00 0.00 80 1022.0
20260505220535 62 0.0 0.0 0.00 0.00 0.00 79 1022.2
20260505215519 63 0.0 0.0 0.00 0.00 0.00 76 1022.1
20260505214519 63 0.0 0.0 0.00 0.00 0.00 78 1021.6
20260505213520 63 0.0 0.0 0.00 0.00 0.00 73 1022.3
20260505212519 63 0.0 0.0 0.00 0.00 0.00 72 1021.7
20260505211535 64 0.0 0.0 0.00 0.00 0.00 70 1022.1
20260505210519 64 0.0 0.0 0.00 0.00 0.00 69 1021.8
20260505205520 64 0.0 0.0 0.00 0.00 0.00 68 1021.9
20260505204522 65 0.0 0.0 0.00 0.00 0.00 66 1021.2
20260505203535 64 0.0 0.0 0.00 0.00 0.00 66 1022.7
20260505202519 65 0.0 0.0 0.00 0.00 0.00 64 1021.9
20260505201550 66 0.0 0.0 0.00 0.00 0.00 59 1021.5
20260505200520 66 0.0 0.0 0.00 0.00 0.00 59 1021.5
20260505195519 66 0.0 0.0 0.00 0.00 0.00 63 1021.7
20260505194519 66 0.0 0.0 0.00 0.00 0.00 61 1021.3
20260505193520 67 0.0 0.0 0.00 0.00 0.00 61 1021.4
20260505192514 67 0.0 0.0 0.00 0.00 0.00 60 1021.2
20260505191520 67 0.0 0.0 0.00 0.00 0.00 62 1021.3
20260505190520 67 0.0 0.0 0.00 0.00 0.00 59 1020.9
20260505185522 67 0.0 0.0 0.00 0.00 0.00 60 1021.5
20260505184521 68 0.0 0.0 0.00 0.00 0.00 56 1020.8
20260505183535 68 0.0 0.0 0.00 0.00 0.00 56 1021.1
20260505182519 69 0.0 0.0 0.00 0.00 0.00 55 1020.9
20260505181519 69 0.0 0.0 0.00 0.00 0.00 57 1020.9
20260505180519 70 0.0 0.0 0.00 0.00 0.00 56 1020.8
20260505175520 70 0.0 0.0 0.00 0.00 0.00 53 1020.4
20260505174520 71 0.0 0.0 0.00 0.00 0.00 51 1020.7
20260505173535 71 0.0 0.0 0.00 0.00 0.00 48 1020.5
20260505172520 72 0.0 0.0 0.00 0.00 0.00 49 1020.1
20260505171534 72 0.0 0.0 0.00 0.00 0.00 52 1020.1
20260505170535 72 0.0 0.0 0.00 0.00 0.00 51 1021.0
20260505165550 73 0.0 0.0 0.00 0.00 0.00 48 1019.8
20260505164519 73 0.0 0.0 0.00 0.00 0.00 48 1021.0
20260505163522 75 0.0 0.0 0.00 0.00 0.00 45 1020.2
20260505162520 75 0.0 0.0 0.00 0.00 0.00 48 1020.6
20260505161520 76 0.0 0.0 0.00 0.00 0.00 41 1019.9
20260505160535 76 0.0 0.0 0.00 0.00 0.00 41 1020.0